sensor_id;sensor_type;location;lat;lon;timestamp;pressure;altitude;pressure_sealevel;temperature;humidity
49943;BME280;36011;53.362;58.948;2023-02-13T00:01:42;97545.91;;;-17.87;58.84
49943;BME280;36011;53.362;58.948;2023-02-13T00:04:46;97552.13;;;-17.80;58.93
49943;BME280;36011;53.362;58.948;2023-02-13T00:07:52;97551.28;;;-17.81;59.00
49943;BME280;36011;53.362;58.948;2023-02-13T00:10:53;97551.41;;;-17.94;59.35
49943;BME280;36011;53.362;58.948;2023-02-13T00:13:55;97560.56;;;-17.80;59.57
49943;BME280;36011;53.362;58.948;2023-02-13T00:16:56;97548.25;;;-17.90;59.67
49943;BME280;36011;53.362;58.948;2023-02-13T00:19:57;97543.06;;;-18.23;59.85
49943;BME280;36011;53.362;58.948;2023-02-13T00:22:59;97547.50;;;-18.19;60.28
49943;BME280;36011;53.362;58.948;2023-02-13T00:26:03;97540.19;;;-18.59;61.10
49943;BME280;36011;53.362;58.948;2023-02-13T00:29:08;97535.94;;;-18.60;61.11
49943;BME280;36011;53.362;58.948;2023-02-13T00:32:11;97544.41;;;-18.72;61.18
49943;BME280;36011;53.362;58.948;2023-02-13T00:35:16;97547.97;;;-18.69;61.79
49943;BME280;36011;53.362;58.948;2023-02-13T00:38:17;97542.88;;;-18.55;61.87
49943;BME280;36011;53.362;58.948;2023-02-13T00:41:18;97546.84;;;-18.74;61.67
49943;BME280;36011;53.362;58.948;2023-02-13T00:44:22;97533.63;;;-18.99;62.08
49943;BME280;36011;53.362;58.948;2023-02-13T00:47:27;97538.78;;;-18.83;62.12
49943;BME280;36011;53.362;58.948;2023-02-13T00:50:31;97517.69;;;-19.15;62.56
49943;BME280;36011;53.362;58.948;2023-02-13T00:53:38;97528.88;;;-19.10;62.53
49943;BME280;36011;53.362;58.948;2023-02-13T00:56:40;97528.69;;;-19.13;62.82
49943;BME280;36011;53.362;58.948;2023-02-13T00:59:41;97527.25;;;-18.94;63.00
49943;BME280;36011;53.362;58.948;2023-02-13T01:02:42;97529.88;;;-18.93;62.61
49943;BME280;36011;53.362;58.948;2023-02-13T01:05:49;97513.88;;;-19.08;62.54
49943;BME280;36011;53.362;58.948;2023-02-13T01:08:50;97526.72;;;-19.04;63.02
49943;BME280;36011;53.362;58.948;2023-02-13T01:11:54;97532.53;;;-19.05;62.76
49943;BME280;36011;53.362;58.948;2023-02-13T01:14:58;97530.72;;;-18.92;62.75
49943;BME280;36011;53.362;58.948;2023-02-13T01:18:02;97525.44;;;-18.82;62.52
49943;BME280;36011;53.362;58.948;2023-02-13T01:21:08;97533.44;;;-19.03;62.22
49943;BME280;36011;53.362;58.948;2023-02-13T01:24:14;97532.69;;;-19.30;62.70
49943;BME280;36011;53.362;58.948;2023-02-13T01:27:16;97520.53;;;-19.37;63.13
49943;BME280;36011;53.362;58.948;2023-02-13T01:30:17;97533.38;;;-19.32;63.75
49943;BME280;36011;53.362;58.948;2023-02-13T01:33:25;97527.38;;;-19.34;63.66
49943;BME280;36011;53.362;58.948;2023-02-13T01:36:28;97524.59;;;-19.11;63.40
49943;BME280;36011;53.362;58.948;2023-02-13T01:39:29;97529.44;;;-19.14;62.76
49943;BME280;36011;53.362;58.948;2023-02-13T01:42:32;97520.00;;;-19.18;63.23
49943;BME280;36011;53.362;58.948;2023-02-13T01:45:34;97503.78;;;-19.10;63.02
49943;BME280;36011;53.362;58.948;2023-02-13T01:48:38;97501.63;;;-19.04;63.03
49943;BME280;36011;53.362;58.948;2023-02-13T01:51:40;97504.72;;;-19.08;63.00
49943;BME280;36011;53.362;58.948;2023-02-13T01:54:43;97509.06;;;-19.05;62.55
49943;BME280;36011;53.362;58.948;2023-02-13T01:57:51;97514.63;;;-18.96;62.90
49943;BME280;36011;53.362;58.948;2023-02-13T02:00:57;97509.28;;;-18.87;62.32
49943;BME280;36011;53.362;58.948;2023-02-13T02:04:09;97510.84;;;-18.89;62.29
49943;BME280;36011;53.362;58.948;2023-02-13T02:07:25;97508.84;;;-18.80;61.25
49943;BME280;36011;53.362;58.948;2023-02-13T02:10:27;97503.91;;;-18.93;61.05
49943;BME280;36011;53.362;58.948;2023-02-13T02:13:34;97519.16;;;-18.90;61.16
49943;BME280;36011;53.362;58.948;2023-02-13T02:16:36;97517.91;;;-18.97;60.96
49943;BME280;36011;53.362;58.948;2023-02-13T02:19:48;97509.88;;;-18.91;61.13
49943;BME280;36011;53.362;58.948;2023-02-13T02:23:11;97509.66;;;-18.81;61.17
49943;BME280;36011;53.362;58.948;2023-02-13T02:37:03;97514.13;;;-18.01;60.15
49943;BME280;36011;53.362;58.948;2023-02-13T02:53:51;97538.13;;;-18.06;58.58
49943;BME280;36011;53.362;58.948;2023-02-13T02:57:04;97541.69;;;-17.88;57.80
49943;BME280;36011;53.362;58.948;2023-02-13T03:00:10;97540.63;;;-17.92;57.55
49943;BME280;36011;53.362;58.948;2023-02-13T03:03:35;97534.50;;;-18.12;58.15
49943;BME280;36011;53.362;58.948;2023-02-13T03:07:05;97533.78;;;-18.09;58.10
49943;BME280;36011;53.362;58.948;2023-02-13T03:10:14;97526.03;;;-18.14;58.14
49943;BME280;36011;53.362;58.948;2023-02-13T03:16:41;97526.06;;;-17.97;58.27
49943;BME280;36011;53.362;58.948;2023-02-13T03:20:38;97529.88;;;-17.89;58.21
49943;BME280;36011;53.362;58.948;2023-02-13T03:24:11;97528.50;;;-17.84;58.27
49943;BME280;36011;53.362;58.948;2023-02-13T03:27:44;97526.25;;;-17.79;57.89
49943;BME280;36011;53.362;58.948;2023-02-13T03:34:43;97514.66;;;-17.76;57.57
49943;BME280;36011;53.362;58.948;2023-02-13T03:38:52;97515.09;;;-17.68;57.51
49943;BME280;36011;53.362;58.948;2023-02-13T03:42:17;97522.31;;;-17.43;57.53
49943;BME280;36011;53.362;58.948;2023-02-13T03:45:33;97522.78;;;-17.34;57.18
49943;BME280;36011;53.362;58.948;2023-02-13T03:48:58;97533.19;;;-17.28;57.06
49943;BME280;36011;53.362;58.948;2023-02-13T03:52:49;97529.00;;;-17.27;57.07
49943;BME280;36011;53.362;58.948;2023-02-13T03:55:55;97528.63;;;-17.18;56.51
49943;BME280;36011;53.362;58.948;2023-02-13T03:59:24;97526.03;;;-17.20;56.80
49943;BME280;36011;53.362;58.948;2023-02-13T04:02:32;97521.16;;;-17.17;57.01
49943;BME280;36011;53.362;58.948;2023-02-13T04:05:39;97519.44;;;-17.02;56.74
49943;BME280;36011;53.362;58.948;2023-02-13T04:08:44;97528.09;;;-16.80;56.64
49943;BME280;36011;53.362;58.948;2023-02-13T04:11:54;97526.88;;;-16.54;56.34
49943;BME280;36011;53.362;58.948;2023-02-13T04:15:03;97527.41;;;-16.27;56.56
49943;BME280;36011;53.362;58.948;2023-02-13T04:18:30;97535.78;;;-15.92;55.81
49943;BME280;36011;53.362;58.948;2023-02-13T04:21:34;97525.56;;;-15.77;55.22
49943;BME280;36011;53.362;58.948;2023-02-13T04:24:41;97500.50;;;-15.92;55.12
49943;BME280;36011;53.362;58.948;2023-02-13T04:27:45;97527.00;;;-15.82;55.18
49943;BME280;36011;53.362;58.948;2023-02-13T04:30:48;97504.06;;;-16.05;55.63
49943;BME280;36011;53.362;58.948;2023-02-13T04:33:50;97533.03;;;-15.97;55.42
49943;BME280;36011;53.362;58.948;2023-02-13T04:36:51;97534.66;;;-15.99;55.36
49943;BME280;36011;53.362;58.948;2023-02-13T04:39:56;97520.84;;;-16.05;55.61
49943;BME280;36011;53.362;58.948;2023-02-13T04:42:57;97522.97;;;-15.97;55.72
49943;BME280;36011;53.362;58.948;2023-02-13T04:45:58;97531.31;;;-15.98;55.33
49943;BME280;36011;53.362;58.948;2023-02-13T04:49:00;97530.59;;;-15.95;55.36
49943;BME280;36011;53.362;58.948;2023-02-13T04:52:01;97527.00;;;-15.82;55.34
49943;BME280;36011;53.362;58.948;2023-02-13T04:55:04;97520.38;;;-15.80;55.22
49943;BME280;36011;53.362;58.948;2023-02-13T04:58:06;97533.38;;;-15.73;54.54
49943;BME280;36011;53.362;58.948;2023-02-13T05:01:12;97534.75;;;-15.60;54.85
49943;BME280;36011;53.362;58.948;2023-02-13T05:04:14;97533.19;;;-15.58;54.69
49943;BME280;36011;53.362;58.948;2023-02-13T05:07:17;97515.16;;;-15.48;54.82
49943;BME280;36011;53.362;58.948;2023-02-13T05:10:18;97495.13;;;-15.45;54.42
49943;BME280;36011;53.362;58.948;2023-02-13T05:13:19;97520.00;;;-15.15;54.37
49943;BME280;36011;53.362;58.948;2023-02-13T05:16:21;97526.47;;;-15.02;54.13
49943;BME280;36011;53.362;58.948;2023-02-13T05:19:22;97522.81;;;-14.89;53.82
49943;BME280;36011;53.362;58.948;2023-02-13T05:22:26;97523.22;;;-14.80;53.68
49943;BME280;36011;53.362;58.948;2023-02-13T05:25:46;97536.44;;;-14.86;53.32
49943;BME280;36011;53.362;58.948;2023-02-13T05:28:47;97526.28;;;-14.87;53.60
49943;BME280;36011;53.362;58.948;2023-02-13T05:32:10;97526.94;;;-14.72;53.59
49943;BME280;36011;53.362;58.948;2023-02-13T05:35:11;97527.75;;;-14.54;53.24
49943;BME280;36011;53.362;58.948;2023-02-13T05:38:14;97519.41;;;-14.11;53.13
49943;BME280;36011;53.362;58.948;2023-02-13T05:41:18;97512.41;;;-10.12;49.53
49943;BME280;36011;53.362;58.948;2023-02-13T05:44:19;97516.31;;;-5.24;41.77
49943;BME280;36011;53.362;58.948;2023-02-13T05:47:21;97530.19;;;-1.49;36.68
49943;BME280;36011;53.362;58.948;2023-02-13T05:50:24;97520.63;;;1.38;32.23
49943;BME280;36011;53.362;58.948;2023-02-13T05:53:28;97524.59;;;2.02;31.63
49943;BME280;36011;53.362;58.948;2023-02-13T05:56:32;97524.19;;;2.98;30.42
49943;BME280;36011;53.362;58.948;2023-02-13T05:59:33;97526.25;;;4.74;29.01
49943;BME280;36011;53.362;58.948;2023-02-13T06:02:34;97519.25;;;5.29;27.07
49943;BME280;36011;53.362;58.948;2023-02-13T06:05:39;97516.16;;;5.95;26.50
49943;BME280;36011;53.362;58.948;2023-02-13T06:08:43;97502.63;;;6.54;24.97
49943;BME280;36011;53.362;58.948;2023-02-13T06:11:51;97502.56;;;7.42;23.70
49943;BME280;36011;53.362;58.948;2023-02-13T06:14:57;97506.22;;;8.18;22.63
49943;BME280;36011;53.362;58.948;2023-02-13T06:18:03;97519.16;;;9.16;21.24
49943;BME280;36011;53.362;58.948;2023-02-13T06:21:07;97514.00;;;10.17;20.44
49943;BME280;36011;53.362;58.948;2023-02-13T06:24:08;97503.72;;;11.09;19.89
49943;BME280;36011;53.362;58.948;2023-02-13T06:27:10;97503.25;;;12.07;18.61
49943;BME280;36011;53.362;58.948;2023-02-13T06:30:14;97514.63;;;13.61;20.46
49943;BME280;36011;53.362;58.948;2023-02-13T06:33:18;97506.41;;;13.78;17.94
49943;BME280;36011;53.362;58.948;2023-02-13T06:36:22;97499.84;;;13.31;15.96
49943;BME280;36011;53.362;58.948;2023-02-13T06:39:26;97498.44;;;12.00;17.13
49943;BME280;36011;53.362;58.948;2023-02-13T06:42:32;97481.66;;;10.96;17.40
49943;BME280;36011;53.362;58.948;2023-02-13T06:45:36;97489.47;;;10.97;17.16
49943;BME280;36011;53.362;58.948;2023-02-13T06:48:41;97493.59;;;11.48;16.05
49943;BME280;36011;53.362;58.948;2023-02-13T06:51:43;97486.50;;;12.37;15.62
49943;BME280;36011;53.362;58.948;2023-02-13T06:54:47;97479.88;;;12.16;15.39
49943;BME280;36011;53.362;58.948;2023-02-13T06:57:51;97485.19;;;11.27;15.25
49943;BME280;36011;53.362;58.948;2023-02-13T07:00:57;97478.00;;;11.29;15.47
49943;BME280;36011;53.362;58.948;2023-02-13T07:04:01;97459.59;;;11.43;14.93
49943;BME280;36011;53.362;58.948;2023-02-13T07:07:05;97482.25;;;12.76;14.57
49943;BME280;36011;53.362;58.948;2023-02-13T07:10:13;97491.06;;;13.83;13.68
49943;BME280;36011;53.362;58.948;2023-02-13T07:13:15;97486.09;;;14.55;13.46
49943;BME280;36011;53.362;58.948;2023-02-13T07:16:17;97489.53;;;14.81;13.03
49943;BME280;36011;53.362;58.948;2023-02-13T07:19:18;97476.63;;;15.01;12.84
49943;BME280;36011;53.362;58.948;2023-02-13T07:22:22;97489.53;;;15.89;12.40
49943;BME280;36011;53.362;58.948;2023-02-13T07:25:26;97496.56;;;16.91;11.78
49943;BME280;36011;53.362;58.948;2023-02-13T07:28:28;97484.47;;;16.98;11.36
49943;BME280;36011;53.362;58.948;2023-02-13T07:31:29;97476.31;;;16.56;11.67
49943;BME280;36011;53.362;58.948;2023-02-13T07:34:33;97465.06;;;17.51;11.54
49943;BME280;36011;53.362;58.948;2023-02-13T07:37:38;97467.09;;;18.62;10.90
49943;BME280;36011;53.362;58.948;2023-02-13T07:40:39;97461.75;;;18.52;10.33
49943;BME280;36011;53.362;58.948;2023-02-13T07:43:45;97456.97;;;16.66;11.13
49943;BME280;36011;53.362;58.948;2023-02-13T07:46:48;97447.38;;;15.38;11.83
49943;BME280;36011;53.362;58.948;2023-02-13T07:49:50;97453.34;;;14.93;12.24
49943;BME280;36011;53.362;58.948;2023-02-13T07:52:59;97460.34;;;15.65;11.76
49943;BME280;36011;53.362;58.948;2023-02-13T07:56:07;97451.13;;;15.35;11.35
49943;BME280;36011;53.362;58.948;2023-02-13T07:59:11;97457.81;;;14.56;11.92
49943;BME280;36011;53.362;58.948;2023-02-13T08:02:16;97452.31;;;11.77;13.36
49943;BME280;36011;53.362;58.948;2023-02-13T08:05:17;97449.28;;;8.77;15.40
49943;BME280;36011;53.362;58.948;2023-02-13T08:08:18;97440.88;;;7.14;16.44
49943;BME280;36011;53.362;58.948;2023-02-13T08:11:30;97456.22;;;5.42;17.78
49943;BME280;36011;53.362;58.948;2023-02-13T08:14:52;97451.75;;;4.93;18.27
49943;BME280;36011;53.362;58.948;2023-02-13T08:17:56;97428.22;;;4.14;18.18
49943;BME280;36011;53.362;58.948;2023-02-13T08:21:06;97450.06;;;2.82;19.84
49943;BME280;36011;53.362;58.948;2023-02-13T08:24:11;97458.63;;;2.11;20.22
49943;BME280;36011;53.362;58.948;2023-02-13T08:27:17;97449.63;;;1.45;20.56
49943;BME280;36011;53.362;58.948;2023-02-13T08:30:21;97449.00;;;1.75;20.51
49943;BME280;36011;53.362;58.948;2023-02-13T08:33:23;97451.63;;;2.53;19.93
49943;BME280;36011;53.362;58.948;2023-02-13T08:36:29;97440.72;;;2.75;19.95
49943;BME280;36011;53.362;58.948;2023-02-13T08:39:34;97442.91;;;2.90;20.08
49943;BME280;36011;53.362;58.948;2023-02-13T08:42:39;97434.66;;;3.41;19.97
49943;BME280;36011;53.362;58.948;2023-02-13T08:45:44;97442.22;;;4.10;19.53
49943;BME280;36011;53.362;58.948;2023-02-13T08:48:49;97446.34;;;3.25;19.83
49943;BME280;36011;53.362;58.948;2023-02-13T08:51:52;97442.59;;;1.50;21.96
49943;BME280;36011;53.362;58.948;2023-02-13T08:54:57;97436.84;;;0.87;22.21
49943;BME280;36011;53.362;58.948;2023-02-13T08:58:03;97417.41;;;0.08;23.25
49943;BME280;36011;53.362;58.948;2023-02-13T09:01:09;97418.72;;;-1.00;24.74
49943;BME280;36011;53.362;58.948;2023-02-13T09:04:14;97421.13;;;-1.72;25.58
49943;BME280;36011;53.362;58.948;2023-02-13T09:07:20;97417.19;;;-2.29;26.16
49943;BME280;36011;53.362;58.948;2023-02-13T09:10:25;97422.25;;;-2.12;26.85
49943;BME280;36011;53.362;58.948;2023-02-13T09:13:29;97422.31;;;-1.10;26.34
49943;BME280;36011;53.362;58.948;2023-02-13T09:16:38;97430.28;;;0.12;25.20
49943;BME280;36011;53.362;58.948;2023-02-13T09:19:42;97424.44;;;1.92;22.99
49943;BME280;36011;53.362;58.948;2023-02-13T09:22:47;97420.28;;;1.43;23.28
49943;BME280;36011;53.362;58.948;2023-02-13T09:25:52;97430.03;;;-0.34;25.83
49943;BME280;36011;53.362;58.948;2023-02-13T09:28:57;97427.41;;;1.31;24.82
49943;BME280;36011;53.362;58.948;2023-02-13T09:32:03;97418.78;;;3.50;21.93
49943;BME280;36011;53.362;58.948;2023-02-13T09:35:08;97426.72;;;4.88;20.91
49943;BME280;36011;53.362;58.948;2023-02-13T09:38:12;97425.50;;;6.42;19.63
49943;BME280;36011;53.362;58.948;2023-02-13T09:41:34;97426.94;;;8.13;18.23
49943;BME280;36011;53.362;58.948;2023-02-13T09:44:39;97430.28;;;10.25;17.01
49943;BME280;36011;53.362;58.948;2023-02-13T09:47:43;97431.56;;;11.42;16.41
49943;BME280;36011;53.362;58.948;2023-02-13T09:50:48;97439.56;;;11.40;16.24
49943;BME280;36011;53.362;58.948;2023-02-13T09:53:53;97433.00;;;11.17;16.39
49943;BME280;36011;53.362;58.948;2023-02-13T10:00:39;97428.69;;;10.54;16.46
49943;BME280;36011;53.362;58.948;2023-02-13T10:03:49;97419.97;;;9.38;17.00
49943;BME280;36011;53.362;58.948;2023-02-13T10:07:06;97425.72;;;9.29;17.06
49943;BME280;36011;53.362;58.948;2023-02-13T10:17:15;97407.53;;;7.19;18.76
49943;BME280;36011;53.362;58.948;2023-02-13T10:20:41;97407.88;;;6.69;19.12
49943;BME280;36011;53.362;58.948;2023-02-13T10:24:04;97398.50;;;5.98;19.60
49943;BME280;36011;53.362;58.948;2023-02-13T10:30:32;97400.06;;;5.78;19.97
49943;BME280;36011;53.362;58.948;2023-02-13T10:33:51;97397.00;;;5.18;20.49
49943;BME280;36011;53.362;58.948;2023-02-13T10:36:55;97397.91;;;4.66;20.82
49943;BME280;36011;53.362;58.948;2023-02-13T10:39:59;97399.00;;;4.85;20.52
49943;BME280;36011;53.362;58.948;2023-02-13T10:43:08;97385.50;;;5.24;20.33
49943;BME280;36011;53.362;58.948;2023-02-13T10:56:20;97409.22;;;5.42;19.98
49943;BME280;36011;53.362;58.948;2023-02-13T10:59:39;97406.38;;;5.24;20.17
49943;BME280;36011;53.362;58.948;2023-02-13T11:02:46;97405.81;;;5.39;19.99
49943;BME280;36011;53.362;58.948;2023-02-13T11:05:51;97407.41;;;4.93;20.17
49943;BME280;36011;53.362;58.948;2023-02-13T11:08:54;97399.47;;;4.45;20.45
49943;BME280;36011;53.362;58.948;2023-02-13T11:12:28;97408.38;;;3.50;21.47
49943;BME280;36011;53.362;58.948;2023-02-13T11:15:33;97399.69;;;3.51;21.89
49943;BME280;36011;53.362;58.948;2023-02-13T11:18:39;97411.88;;;3.49;21.32
49943;BME280;36011;53.362;58.948;2023-02-13T11:21:41;97392.50;;;1.88;22.77
49943;BME280;36011;53.362;58.948;2023-02-13T11:24:58;97410.72;;;-0.06;25.38
49943;BME280;36011;53.362;58.948;2023-02-13T11:28:15;97407.72;;;-1.16;26.25
49943;BME280;36011;53.362;58.948;2023-02-13T11:31:28;97402.25;;;-0.88;26.42
49943;BME280;36011;53.362;58.948;2023-02-13T11:34:33;97399.50;;;-1.58;27.42
49943;BME280;36011;53.362;58.948;2023-02-13T11:37:35;97395.91;;;-2.74;28.57
49943;BME280;36011;53.362;58.948;2023-02-13T11:40:37;97397.69;;;-2.85;28.89
49943;BME280;36011;53.362;58.948;2023-02-13T11:43:49;97401.09;;;-2.80;29.03
49943;BME280;36011;53.362;58.948;2023-02-13T11:46:56;97394.19;;;-2.75;28.78
49943;BME280;36011;53.362;58.948;2023-02-13T11:49:57;97396.72;;;-2.55;28.80
49943;BME280;36011;53.362;58.948;2023-02-13T11:53:18;97403.59;;;-2.64;28.66
49943;BME280;36011;53.362;58.948;2023-02-13T11:56:26;97406.31;;;-3.09;29.02
49943;BME280;36011;53.362;58.948;2023-02-13T11:59:38;97406.41;;;-3.72;29.84
49943;BME280;36011;53.362;58.948;2023-02-13T12:02:46;97399.53;;;-4.16;30.68
49943;BME280;36011;53.362;58.948;2023-02-13T12:06:15;97393.25;;;-5.02;31.60
49943;BME280;36011;53.362;58.948;2023-02-13T12:09:16;97396.72;;;-6.25;34.02
49943;BME280;36011;53.362;58.948;2023-02-13T12:12:38;97401.63;;;-7.18;35.33
49943;BME280;36011;53.362;58.948;2023-02-13T12:15:46;97398.22;;;-7.77;36.29
49943;BME280;36011;53.362;58.948;2023-02-13T12:18:55;97406.19;;;-8.11;37.08
49943;BME280;36011;53.362;58.948;2023-02-13T12:26:02;97407.72;;;-8.71;39.19
49943;BME280;36011;53.362;58.948;2023-02-13T12:29:23;97404.91;;;-8.85;39.16
49943;BME280;36011;53.362;58.948;2023-02-13T12:32:55;97404.22;;;-9.17;40.19
49943;BME280;36011;53.362;58.948;2023-02-13T12:46:02;97393.25;;;-9.92;42.05
49943;BME280;36011;53.362;58.948;2023-02-13T12:52:59;97384.06;;;-10.22;45.00
49943;BME280;36011;53.362;58.948;2023-02-13T12:56:10;97394.63;;;-10.74;44.44
49943;BME280;36011;53.362;58.948;2023-02-13T12:59:47;97393.25;;;-10.95;45.11
49943;BME280;36011;53.362;58.948;2023-02-13T13:09:59;97371.38;;;-11.20;45.73
49943;BME280;36011;53.362;58.948;2023-02-13T13:13:17;97378.84;;;-11.24;46.07
49943;BME280;36011;53.362;58.948;2023-02-13T13:29:50;97397.94;;;-11.67;46.20
49943;BME280;36011;53.362;58.948;2023-02-13T13:46:41;97400.09;;;-11.80;47.43
49943;BME280;36011;53.362;58.948;2023-02-13T13:49:58;97403.03;;;-11.94;48.61
49943;BME280;36011;53.362;58.948;2023-02-13T13:53:15;97399.69;;;-12.21;49.22
49943;BME280;36011;53.362;58.948;2023-02-13T13:56:21;97397.97;;;-12.22;49.84
49943;BME280;36011;53.362;58.948;2023-02-13T14:02:49;97404.09;;;-12.42;51.67
49943;BME280;36011;53.362;58.948;2023-02-13T14:06:05;97396.78;;;-12.58;51.91
49943;BME280;36011;53.362;58.948;2023-02-13T14:09:36;97394.84;;;-12.66;52.27
49943;BME280;36011;53.362;58.948;2023-02-13T14:13:09;97387.75;;;-12.76;52.46
49943;BME280;36011;53.362;58.948;2023-02-13T14:16:40;97389.91;;;-12.86;52.17
49943;BME280;36011;53.362;58.948;2023-02-13T14:19:52;97390.97;;;-12.80;52.05
49943;BME280;36011;53.362;58.948;2023-02-13T14:22:54;97385.03;;;-12.80;51.72
49943;BME280;36011;53.362;58.948;2023-02-13T14:29:31;97393.59;;;-12.77;53.14
49943;BME280;36011;53.362;58.948;2023-02-13T14:32:38;97393.44;;;-13.07;53.06
49943;BME280;36011;53.362;58.948;2023-02-13T14:35:43;97385.06;;;-13.04;53.56
49943;BME280;36011;53.362;58.948;2023-02-13T14:38:56;97394.53;;;-13.23;54.17
49943;BME280;36011;53.362;58.948;2023-02-13T14:42:04;97392.50;;;-13.09;54.47
49943;BME280;36011;53.362;58.948;2023-02-13T14:45:28;97387.22;;;-13.39;54.61
49943;BME280;36011;53.362;58.948;2023-02-13T14:48:55;97388.72;;;-13.20;55.37
49943;BME280;36011;53.362;58.948;2023-02-13T14:52:06;97389.47;;;-13.23;55.48
49943;BME280;36011;53.362;58.948;2023-02-13T14:55:33;97397.34;;;-13.39;55.61
49943;BME280;36011;53.362;58.948;2023-02-13T14:58:48;97391.34;;;-13.19;55.71
49943;BME280;36011;53.362;58.948;2023-02-13T15:01:52;97387.50;;;-13.31;55.95
49943;BME280;36011;53.362;58.948;2023-02-13T15:05:05;97399.00;;;-13.41;56.51
49943;BME280;36011;53.362;58.948;2023-02-13T15:08:10;97392.41;;;-13.36;56.26
49943;BME280;36011;53.362;58.948;2023-02-13T15:11:31;97398.28;;;-13.37;56.24
49943;BME280;36011;53.362;58.948;2023-02-13T15:14:38;97401.56;;;-13.16;55.87
49943;BME280;36011;53.362;58.948;2023-02-13T15:17:39;97398.00;;;-13.21;55.90
49943;BME280;36011;53.362;58.948;2023-02-13T15:20:42;97401.88;;;-13.06;55.50
49943;BME280;36011;53.362;58.948;2023-02-13T15:23:49;97391.06;;;-12.77;55.14
49943;BME280;36011;53.362;58.948;2023-02-13T15:26:59;97397.34;;;-12.91;55.25
49943;BME280;36011;53.362;58.948;2023-02-13T15:30:03;97396.25;;;-12.74;55.09
49943;BME280;36011;53.362;58.948;2023-02-13T15:33:17;97396.25;;;-12.74;54.85
49943;BME280;36011;53.362;58.948;2023-02-13T15:36:21;97391.31;;;-12.71;54.44
49943;BME280;36011;53.362;58.948;2023-02-13T15:39:30;97382.97;;;-12.67;54.69
49943;BME280;36011;53.362;58.948;2023-02-13T15:42:32;97383.06;;;-12.89;54.57
49943;BME280;36011;53.362;58.948;2023-02-13T15:45:33;97394.03;;;-12.90;55.17
49943;BME280;36011;53.362;58.948;2023-02-13T15:48:35;97386.63;;;-12.84;54.99
49943;BME280;36011;53.362;58.948;2023-02-13T15:51:36;97397.69;;;-12.82;55.49
49943;BME280;36011;53.362;58.948;2023-02-13T15:54:49;97402.50;;;-12.88;55.27
49943;BME280;36011;53.362;58.948;2023-02-13T15:57:53;97409.22;;;-12.90;55.28
49943;BME280;36011;53.362;58.948;2023-02-13T16:00:58;97398.09;;;-12.70;54.68
49943;BME280;36011;53.362;58.948;2023-02-13T16:04:06;97406.63;;;-12.92;54.46
49943;BME280;36011;53.362;58.948;2023-02-13T16:07:13;97398.34;;;-12.87;54.92
49943;BME280;36011;53.362;58.948;2023-02-13T16:13:28;97400.22;;;-12.82;54.50
49943;BME280;36011;53.362;58.948;2023-02-13T16:23:06;97392.72;;;-12.79;54.89
49943;BME280;36011;53.362;58.948;2023-02-13T16:26:16;97388.75;;;-12.96;55.27
49943;BME280;36011;53.362;58.948;2023-02-13T16:29:23;97394.44;;;-12.78;55.37
49943;BME280;36011;53.362;58.948;2023-02-13T16:32:29;97382.69;;;-12.76;55.28
49943;BME280;36011;53.362;58.948;2023-02-13T16:35:35;97381.16;;;-12.71;55.16
49943;BME280;36011;53.362;58.948;2023-02-13T16:38:44;97376.44;;;-12.60;55.37
49943;BME280;36011;53.362;58.948;2023-02-13T16:41:48;97379.28;;;-12.76;55.66
49943;BME280;36011;53.362;58.948;2023-02-13T16:44:50;97375.56;;;-12.86;56.35
49943;BME280;36011;53.362;58.948;2023-02-13T16:48:13;97371.03;;;-12.71;56.40
49943;BME280;36011;53.362;58.948;2023-02-13T16:51:23;97364.22;;;-12.72;56.65
49943;BME280;36011;53.362;58.948;2023-02-13T16:54:51;97358.50;;;-12.66;56.70
49943;BME280;36011;53.362;58.948;2023-02-13T16:58:03;97357.94;;;-12.57;56.52
49943;BME280;36011;53.362;58.948;2023-02-13T17:01:14;97361.78;;;-12.43;56.43
49943;BME280;36011;53.362;58.948;2023-02-13T17:04:23;97360.84;;;-12.19;56.55
49943;BME280;36011;53.362;58.948;2023-02-13T17:07:29;97374.66;;;-12.11;56.64
49943;BME280;36011;53.362;58.948;2023-02-13T17:10:32;97375.69;;;-11.76;56.50
49943;BME280;36011;53.362;58.948;2023-02-13T17:13:34;97365.16;;;-11.60;57.24
49943;BME280;36011;53.362;58.948;2023-02-13T17:16:38;97364.78;;;-11.72;58.00
49943;BME280;36011;53.362;58.948;2023-02-13T17:19:42;97355.31;;;-11.78;58.25
49943;BME280;36011;53.362;58.948;2023-02-13T17:22:51;97368.31;;;-11.67;58.26
49943;BME280;36011;53.362;58.948;2023-02-13T17:25:53;97374.59;;;-11.56;58.27
49943;BME280;36011;53.362;58.948;2023-02-13T17:28:57;97375.91;;;-11.38;58.29
49943;BME280;36011;53.362;58.948;2023-02-13T17:32:03;97367.00;;;-11.24;58.17
49943;BME280;36011;53.362;58.948;2023-02-13T17:35:04;97382.91;;;-11.01;57.17
49943;BME280;36011;53.362;58.948;2023-02-13T17:38:08;97382.22;;;-10.95;57.08
49943;BME280;36011;53.362;58.948;2023-02-13T17:41:16;97385.28;;;-10.75;57.41
49943;BME280;36011;53.362;58.948;2023-02-13T17:44:20;97405.19;;;-10.91;56.98
49943;BME280;36011;53.362;58.948;2023-02-13T17:47:22;97401.34;;;-10.76;57.22
49943;BME280;36011;53.362;58.948;2023-02-13T17:50:25;97400.19;;;-10.88;57.36
49943;BME280;36011;53.362;58.948;2023-02-13T17:53:28;97395.84;;;-11.23;57.97
49943;BME280;36011;53.362;58.948;2023-02-13T17:56:29;97385.56;;;-11.26;57.80
49943;BME280;36011;53.362;58.948;2023-02-13T17:59:31;97376.34;;;-11.53;57.80
49943;BME280;36011;53.362;58.948;2023-02-13T18:02:33;97379.25;;;-11.69;58.43
49943;BME280;36011;53.362;58.948;2023-02-13T18:05:36;97377.09;;;-11.57;57.94
49943;BME280;36011;53.362;58.948;2023-02-13T18:08:40;97367.56;;;-11.64;58.53
49943;BME280;36011;53.362;58.948;2023-02-13T18:11:43;97379.88;;;-11.48;58.19
49943;BME280;36011;53.362;58.948;2023-02-13T18:14:49;97382.44;;;-11.48;58.24
49943;BME280;36011;53.362;58.948;2023-02-13T18:17:51;97381.69;;;-11.44;58.25
49943;BME280;36011;53.362;58.948;2023-02-13T18:20:55;97391.22;;;-11.37;57.78